Time;durP1;ratioP1;P1;durP2;ratioP2;P2;SDS_P1;SDS_P2;PMS_P1;PMS_P2;Temp;Humidity;BMP_temperature;BMP_pressure;BME280_temperature;BME280_humidity;BME280_pressure;Samples;Min_cycle;Max_cycle;Signal;HPM_P1;HPM_P2
2021/12/22 00:01:35;;;;;;;101.03;42.10;;;25.80;1664.00;;;;;;5085084;28;20123;-59
2021/12/22 00:04:01;;;;;;;110.88;48.75;;;25.70;1689.60;;;;;;5085689;28;20020;-60
2021/12/22 00:06:29;;;;;;;124.38;51.13;;;25.60;1689.60;;;;;;5083786;28;20032;-60
2021/12/22 00:08:55;;;;;;;116.95;49.15;;;0.90;1715.20;;;;;;5085119;28;20024;-60
2021/12/22 00:11:21;;;;;;;108.65;48.40;;;0.80;1715.20;;;;;;5085016;28;20025;-58
2021/12/22 00:13:46;;;;;;;113.95;47.25;;;0.70;1740.80;;;;;;5082956;28;20036;-59
2021/12/22 00:16:12;;;;;;;112.88;47.03;;;0.70;1740.80;;;;;;5084165;28;20039;-60
2021/12/22 00:18:38;;;;;;;97.82;40.55;;;0.60;1740.80;;;;;;5084450;28;20032;-58
2021/12/22 00:21:04;;;;;;;94.25;40.00;;;0.50;1766.40;;;;;;5085602;28;20028;-60
2021/12/22 00:23:31;;;;;;;102.97;39.90;;;0.70;1766.40;;;;;;5086164;28;20028;-59
2021/12/22 00:25:57;;;;;;;99.72;42.33;;;0.80;1843.20;;;;;;5083617;28;20081;-60
2021/12/22 00:28:23;;;;;;;94.88;39.28;;;0.90;1920.00;;;;;;5085065;28;20023;-60
2021/12/22 00:30:50;;;;;;;95.05;41.20;;;25.70;1843.20;;;;;;5084099;28;20074;-58
2021/12/22 00:33:17;;;;;;;96.38;41.38;;;25.90;1792.00;;;;;;5087593;28;21512;-57
2021/12/22 00:35:45;;;;;;;102.63;43.22;;;26.00;1740.80;;;;;;5088866;28;20028;-60
2021/12/22 00:38:16;;;;;;;91.75;40.50;;;26.00;1664.00;;;;;;5089585;28;20032;-60
2021/12/22 00:40:43;;;;;;;98.35;40.88;;;26.10;1612.80;;;;;;5084164;28;20419;-60
2021/12/22 00:43:09;;;;;;;89.68;38.03;;;26.20;1587.20;;;;;;5084124;28;20517;-58
2021/12/22 00:45:36;;;;;;;78.43;36.15;;;26.10;1587.20;;;;;;5082933;28;20390;-59
2021/12/22 00:48:03;;;;;;;83.18;36.42;;;26.00;1612.80;;;;;;5087962;28;20124;-59
2021/12/22 00:50:30;;;;;;;77.30;35.83;;;25.80;1638.40;;;;;;5084881;28;20028;-59
2021/12/22 00:52:56;;;;;;;67.47;32.55;;;0.90;1664.00;;;;;;5083815;28;20030;-58
2021/12/22 00:55:22;;;;;;;76.50;34.97;;;0.70;1689.60;;;;;;5084332;28;20029;-57
2021/12/22 00:57:49;;;;;;;104.85;44.50;;;0.50;1715.20;;;;;;5082298;28;20496;-59
2021/12/22 01:00:17;;;;;;;156.13;62.55;;;0.50;1740.80;;;;;;5084101;28;20023;-58
2021/12/22 01:02:44;;;;;;;182.38;71.72;;;0.50;1740.80;;;;;;5085471;28;20024;-58
2021/12/22 01:05:12;;;;;;;184.00;69.97;;;0.40;1766.40;;;;;;5083131;28;20360;-58
2021/12/22 01:07:39;;;;;;;184.50;71.32;;;0.40;1740.80;;;;;;5083155;28;20470;-56
2021/12/22 01:10:06;;;;;;;157.85;60.45;;;0.40;1740.80;;;;;;5085036;28;20020;-56
2021/12/22 01:12:32;;;;;;;147.93;60.78;;;0.40;1740.80;;;;;;5084038;28;20513;-58
2021/12/22 01:14:58;;;;;;;151.23;62.28;;;0.40;1766.40;;;;;;5083203;28;20021;-56
2021/12/22 01:17:24;;;;;;;212.13;67.82;;;0.50;1920.00;;;;;;5083125;28;20023;-58
2021/12/22 01:20:14;;;;;;;158.93;70.65;;;0.60;2048.00;;;;;;5084533;28;20062;-59
2021/12/22 01:25:09;;;;;;;171.98;75.15;;;0.80;1920.00;;;;;;5086944;28;20108;-57
2021/12/22 01:27:39;;;;;;;194.95;80.00;;;25.60;1868.80;;;;;;5082875;28;20032;-59
2021/12/22 01:30:16;;;;;;;207.00;85.05;;;25.70;1817.60;;;;;;5092803;28;20072;-58
2021/12/22 01:32:42;;;;;;;215.63;81.60;;;25.70;1740.80;;;;;;5091667;28;20051;-57
2021/12/22 01:35:12;;;;;;;220.10;88.43;;;25.90;1689.60;;;;;;5093359;28;20107;-57
2021/12/22 01:37:38;;;;;;;227.68;89.38;;;25.90;1664.00;;;;;;5091126;28;20031;-58
2021/12/22 01:40:05;;;;;;;214.50;86.43;;;25.90;1638.40;;;;;;5087470;28;20028;-59
2021/12/22 01:42:33;;;;;;;243.20;93.60;;;26.00;1638.40;;;;;;5083902;28;20462;-57
2021/12/22 01:50:48;;;;;;;147.15;59.85;;;0.70;1689.60;;;;;;5084178;28;20018;-59
2021/12/22 01:53:22;;;;;;;126.10;52.65;;;0.60;1740.80;;;;;;5002424;28;20026;-59
2021/12/22 01:56:15;;;;;;;122.10;48.23;;;0.60;1740.80;;;;;;5002358;28;20536;-57
2021/12/22 01:58:44;;;;;;;106.50;44.55;;;0.60;1766.40;;;;;;5006067;28;20109;-60
2021/12/22 02:01:11;;;;;;;94.15;42.22;;;0.60;1766.40;;;;;;5011710;28;20034;-59
2021/12/22 02:03:40;;;;;;;104.45;44.10;;;0.70;1766.40;;;;;;5012136;28;20085;-59
2021/12/22 02:06:08;;;;;;;95.38;43.55;;;0.70;1766.40;;;;;;5011613;28;20034;-59
2021/12/22 02:08:35;;;;;;;87.05;40.65;;;0.80;1766.40;;;;;;5011570;28;20123;-59
2021/12/22 02:11:01;;;;;;;88.85;39.35;;;0.70;1766.40;;;;;;5011646;28;20040;-59
2021/12/22 02:13:31;;;;;;;85.05;40.80;;;0.70;1766.40;;;;;;5011697;28;20042;-60
2021/12/22 02:16:06;;;;;;;104.28;43.80;;;0.70;1817.60;;;;;;5011747;28;20145;-60
2021/12/22 02:18:33;;;;;;;926.40;87.10;;;0.90;2124.80;;;;;;5011765;28;20149;-62
2021/12/22 02:20:59;;;;;;;80.88;38.47;;;25.80;2201.60;;;;;;5011100;28;20484;-61
2021/12/22 02:23:25;;;;;;;65.75;33.72;;;25.90;2048.00;;;;;;5011598;28;20045;-62
2021/12/22 02:25:56;;;;;;;69.75;34.30;;;26.00;1894.40;;;;;;5014151;28;20025;-62
2021/12/22 02:28:26;;;;;;;67.53;36.08;;;26.20;1843.20;;;;;;5015773;28;20417;-62
2021/12/22 02:30:53;;;;;;;64.88;33.17;;;26.20;1817.60;;;;;;5080603;28;20110;-61
2021/12/22 02:38:32;;;;;;;105.72;43.75;;;26.40;1689.60;;;;;;5097767;28;20040;-62
2021/12/22 02:40:58;;;;;;;87.78;39.63;;;26.30;1689.60;;;;;;5097553;28;20048;-60
2021/12/22 02:43:30;;;;;;;91.90;39.38;;;26.00;1715.20;;;;;;5097135;28;20056;-60
2021/12/22 02:45:56;;;;;;;92.05;41.47;;;25.80;1766.40;;;;;;5097118;28;20052;-60
2021/12/22 02:48:23;;;;;;;81.60;37.65;;;25.70;1766.40;;;;;;5097251;28;20067;-60
2021/12/22 02:50:49;;;;;;;76.80;34.55;;;0.90;1817.60;;;;;;5097093;28;20028;-60
2021/12/22 02:53:16;;;;;;;76.30;36.88;;;0.90;1817.60;;;;;;5096962;28;20462;-60
2021/12/22 02:55:50;;;;;;;80.03;36.83;;;25.60;1817.60;;;;;;5096994;28;20080;-60
2021/12/22 02:58:30;;;;;;;80.63;36.50;;;25.60;1817.60;;;;;;5097082;28;20027;-60
2021/12/22 03:06:28;;;;;;;;;;;0.80;1817.60;;;;;;5097503;28;20027;-60
2021/12/22 03:08:54;;;;;;;197.73;53.58;;;0.90;1894.40;;;;;;5096798;28;19912;-60
2021/12/22 03:11:20;;;;;;;173.63;51.03;;;25.60;2124.80;;;;;;5096867;28;20365;-59
2021/12/22 03:13:46;;;;;;;126.28;56.10;;;25.70;2201.60;;;;;;5096803;28;20032;-60
2021/12/22 03:16:11;;;;;;;98.78;46.22;;;25.90;2201.60;;;;;;5096506;28;20505;-61
2021/12/22 03:18:38;;;;;;;87.13;42.35;;;26.10;2022.40;;;;;;5096508;28;20028;-59
2021/12/22 03:21:18;;;;;;;88.20;41.70;;;26.20;1920.00;;;;;;5096479;28;20024;-60
2021/12/22 03:23:44;;;;;;;99.45;42.95;;;26.30;1868.80;;;;;;5096600;28;20032;-60
2021/12/22 03:26:10;;;;;;;102.85;44.28;;;26.40;1817.60;;;;;;5096634;28;20032;-60
2021/12/22 03:28:35;;;;;;;102.35;46.88;;;26.50;1766.40;;;;;;5096239;28;20044;-60
2021/12/22 03:31:02;;;;;;;107.53;45.72;;;51.20;1766.40;;;;;;5096423;28;20020;-59
2021/12/22 03:33:28;;;;;;;116.53;49.40;;;51.30;1740.80;;;;;;5096395;28;20462;-58
2021/12/22 03:35:53;;;;;;;124.75;52.13;;;26.40;1715.20;;;;;;5095772;28;20064;-59
2021/12/22 03:38:19;;;;;;;117.25;53.58;;;26.20;1740.80;;;;;;5096170;28;20027;-59
2021/12/22 03:40:45;;;;;;;118.65;53.58;;;26.10;1766.40;;;;;;5096232;28;20046;-60
2021/12/22 03:43:10;;;;;;;124.97;56.95;;;26.10;1792.00;;;;;;5095912;28;20083;-59
2021/12/22 03:45:36;;;;;;;122.15;56.92;;;26.00;1792.00;;;;;;5095998;28;20069;-59
2021/12/22 03:48:02;;;;;;;115.10;51.88;;;26.10;1792.00;;;;;;5095959;28;20044;-59
2021/12/22 03:50:28;;;;;;;104.60;49.42;;;26.00;1792.00;;;;;;5095697;28;20036;-60
2021/12/22 03:52:54;;;;;;;106.90;49.53;;;26.00;1792.00;;;;;;5095951;28;20028;-60
2021/12/22 03:55:19;;;;;;;138.60;55.17;;;26.00;1817.60;;;;;;5095933;28;20439;-60
2021/12/22 03:57:45;;;;;;;107.53;50.55;;;26.10;1971.20;;;;;;5095640;28;20032;-60
2021/12/22 04:00:13;;;;;;;108.18;48.85;;;26.40;2150.40;;;;;;5095101;28;20028;-60
2021/12/22 04:02:39;;;;;;;106.43;46.72;;;26.50;1920.00;;;;;;5069113;28;20028;-59
2021/12/22 04:05:06;;;;;;;87.97;39.78;;;51.30;1920.00;;;;;;5085435;28;20469;-68
2021/12/22 04:07:32;;;;;;;75.15;35.33;;;51.30;1868.80;;;;;;5114572;28;20489;-61
2021/12/22 04:09:58;;;;;;;100.28;42.92;;;51.50;1843.20;;;;;;5114706;28;20024;-59
2021/12/22 04:12:24;;;;;;;92.78;42.50;;;51.50;1792.00;;;;;;5115867;28;20053;-60
2021/12/22 04:14:50;;;;;;;93.70;41.58;;;51.40;1740.80;;;;;;5115981;28;20019;-64
2021/12/22 04:17:16;;;;;;;108.93;45.40;;;26.50;1740.80;;;;;;5115792;28;20444;-61
2021/12/22 04:19:42;;;;;;;91.47;42.67;;;26.30;1817.60;;;;;;5115805;28;20431;-62
2021/12/22 04:22:08;;;;;;;83.97;37.75;;;26.50;1971.20;;;;;;5115491;28;20020;-61
2021/12/22 04:24:34;;;;;;;73.93;39.20;;;26.50;1894.40;;;;;;5115708;28;20028;-59
2021/12/22 04:27:00;;;;;;;76.63;38.60;;;51.20;1894.40;;;;;;5115664;28;20437;-60
2021/12/22 04:29:25;;;;;;;86.55;43.60;;;51.30;1868.80;;;;;;5115086;28;20055;-60
2021/12/22 04:31:51;;;;;;;105.20;51.10;;;51.30;1868.80;;;;;;5115566;28;20027;-60
2021/12/22 04:34:17;;;;;;;114.55;54.53;;;51.30;1868.80;;;;;;5115600;28;20035;-60
2021/12/22 04:36:43;;;;;;;115.28;54.85;;;51.20;1868.80;;;;;;5115266;28;20079;-59
2021/12/22 04:39:10;;;;;;;90.68;47.55;;;51.20;1868.80;;;;;;5115270;28;20027;-60
2021/12/22 04:41:36;;;;;;;82.60;43.80;;;51.20;1894.40;;;;;;5115372;28;20044;-60
2021/12/22 04:44:03;;;;;;;77.50;41.35;;;51.20;1894.40;;;;;;5115249;28;20051;-59
2021/12/22 04:46:28;;;;;;;75.80;39.03;;;26.50;1868.80;;;;;;5115315;28;20032;-59
2021/12/22 04:48:54;;;;;;;71.45;38.95;;;26.50;1868.80;;;;;;5114444;28;20492;-60
2021/12/22 04:51:26;;;;;;;75.88;38.00;;;26.50;1868.80;;;;;;5115107;28;20525;-59
2021/12/22 04:54:15;;;;;;;82.38;38.90;;;51.20;1894.40;;;;;;5115250;28;20119;-60
2021/12/22 04:56:41;;;;;;;98.13;48.08;;;51.20;1894.40;;;;;;5114988;28;20414;-60
2021/12/22 04:59:07;;;;;;;145.93;59.95;;;26.50;1868.80;;;;;;5115109;28;20078;-60
2021/12/22 05:01:33;;;;;;;146.45;64.30;;;26.50;1868.80;;;;;;5115030;28;20354;-59
2021/12/22 05:03:58;;;;;;;165.07;70.20;;;51.20;1894.40;;;;;;5115024;28;20020;-60
2021/12/22 05:06:25;;;;;;;172.07;67.50;;;51.20;1894.40;;;;;;5114899;28;20517;-60
2021/12/22 05:08:51;;;;;;;163.27;66.47;;;51.20;1894.40;;;;;;5114795;28;20063;-60
2021/12/22 05:11:17;;;;;;;150.95;66.22;;;26.50;1868.80;;;;;;5114516;28;20080;-60
2021/12/22 05:13:43;;;;;;;150.48;68.78;;;51.20;1894.40;;;;;;5114889;28;20044;-60
2021/12/22 05:16:16;;;;;;;156.27;68.38;;;51.20;1868.80;;;;;;5114608;28;20499;-59
2021/12/22 05:18:56;;;;;;;140.35;65.45;;;51.20;1868.80;;;;;;5114499;28;20454;-60
2021/12/22 05:21:24;;;;;;;127.28;61.83;;;51.20;1868.80;;;;;;5114592;28;20032;-60
2021/12/22 05:23:51;;;;;;;149.20;65.22;;;51.20;1868.80;;;;;;5096052;28;20039;-59
2021/12/22 05:26:18;;;;;;;138.82;63.60;;;26.50;1843.20;;;;;;5114385;28;20054;-59
2021/12/22 05:28:44;;;;;;;147.40;66.78;;;51.20;1868.80;;;;;;5113953;28;20036;-59
2021/12/22 05:31:09;;;;;;;152.63;68.72;;;51.20;1868.80;;;;;;5114656;28;20419;-59
2021/12/22 05:33:35;;;;;;;150.90;69.68;;;51.20;1868.80;;;;;;5114569;28;20027;-59
2021/12/22 05:36:01;;;;;;;188.50;79.72;;;26.50;1843.20;;;;;;5114424;28;20027;-60
2021/12/22 05:38:27;;;;;;;238.65;95.68;;;26.50;1843.20;;;;;;5114412;28;20043;-61
2021/12/22 05:40:52;;;;;;;251.95;102.18;;;26.50;1843.20;;;;;;5114272;28;20020;-60
2021/12/22 05:43:18;;;;;;;274.52;105.53;;;26.50;1843.20;;;;;;5114109;28;20039;-61
2021/12/22 05:45:44;;;;;;;254.93;103.28;;;26.50;1843.20;;;;;;5114076;28;20027;-62
2021/12/22 05:48:10;;;;;;;271.85;104.57;;;26.50;1843.20;;;;;;5114130;28;20042;-62
2021/12/22 05:50:35;;;;;;;230.98;100.25;;;26.50;1843.20;;;;;;5114172;28;20031;-61
2021/12/22 05:53:01;;;;;;;205.05;94.35;;;26.50;1843.20;;;;;;5113990;28;20027;-61
2021/12/22 05:55:27;;;;;;;211.93;92.55;;;26.50;1843.20;;;;;;5114499;28;20019;-61
2021/12/22 05:57:53;;;;;;;207.02;92.70;;;26.50;1817.60;;;;;;5114143;28;20099;-61
2021/12/22 06:00:22;;;;;;;202.45;89.93;;;26.50;1817.60;;;;;;5113588;28;20024;-61
2021/12/22 06:02:48;;;;;;;206.77;91.05;;;26.50;1817.60;;;;;;5113794;28;20031;-61
2021/12/22 06:05:14;;;;;;;210.75;93.03;;;26.50;1817.60;;;;;;5114127;28;20104;-61
2021/12/22 06:07:39;;;;;;;215.07;98.32;;;26.50;1817.60;;;;;;5113403;28;20032;-61
2021/12/22 06:10:06;;;;;;;240.05;105.53;;;26.50;1817.60;;;;;;5113878;28;20024;-61
2021/12/22 06:12:32;;;;;;;232.48;100.72;;;26.50;1817.60;;;;;;5114197;28;20035;-61
2021/12/22 06:14:57;;;;;;;224.70;98.95;;;26.50;1817.60;;;;;;5114044;28;20512;-60
2021/12/22 06:17:23;;;;;;;211.07;95.40;;;26.50;1792.00;;;;;;5113953;28;20031;-61
2021/12/22 06:19:49;;;;;;;206.73;94.55;;;51.20;1843.20;;;;;;5114023;28;20469;-61
2021/12/22 06:22:15;;;;;;;222.40;98.15;;;26.50;1817.60;;;;;;5113841;28;20470;-60
2021/12/22 06:24:41;;;;;;;240.02;110.07;;;26.50;1817.60;;;;;;5113920;28;20050;-60
2021/12/22 06:27:06;;;;;;;240.27;106.45;;;26.40;1817.60;;;;;;5113826;28;20528;-60
2021/12/22 06:29:32;;;;;;;216.40;102.57;;;26.40;1817.60;;;;;;5113714;28;20042;-61
2021/12/22 06:31:58;;;;;;;203.55;95.47;;;26.50;1817.60;;;;;;5114055;28;20046;-60
2021/12/22 06:34:24;;;;;;;185.20;90.53;;;26.50;1817.60;;;;;;5113680;28;20376;-61
2021/12/22 06:36:49;;;;;;;170.63;81.78;;;26.50;1817.60;;;;;;5113597;28;20031;-60
2021/12/22 06:39:16;;;;;;;160.57;78.35;;;26.50;1817.60;;;;;;5113651;28;20116;-61
2021/12/22 06:41:42;;;;;;;152.38;72.68;;;26.50;1817.60;;;;;;5114009;28;20071;-61
2021/12/22 06:44:07;;;;;;;148.93;76.50;;;26.40;1817.60;;;;;;5113537;28;20055;-61
2021/12/22 06:46:33;;;;;;;160.45;75.10;;;26.40;1792.00;;;;;;5113402;28;20432;-60
2021/12/22 06:48:59;;;;;;;183.65;86.68;;;26.40;1817.60;;;;;;5113572;28;20481;-60
2021/12/22 06:51:25;;;;;;;227.52;102.57;;;26.50;1817.60;;;;;;5113405;28;20023;-61
2021/12/22 06:53:50;;;;;;;249.45;112.57;;;26.50;1817.60;;;;;;5113714;28;20400;-60
2021/12/22 06:56:16;;;;;;;266.95;121.60;;;26.50;1817.60;;;;;;5113734;28;20124;-60
2021/12/22 06:58:42;;;;;;;284.60;127.82;;;26.50;1817.60;;;;;;5113565;28;20447;-60
2021/12/22 07:01:08;;;;;;;260.73;119.15;;;26.50;1817.60;;;;;;5113585;28;20475;-60
2021/12/22 07:03:34;;;;;;;246.00;117.72;;;26.50;1817.60;;;;;;5113741;28;20055;-60
2021/12/22 07:06:00;;;;;;;241.40;118.53;;;26.50;1817.60;;;;;;5113529;28;20055;-60
2021/12/22 07:08:26;;;;;;;222.93;112.57;;;26.50;1817.60;;;;;;5113430;28;20525;-60
2021/12/22 07:10:52;;;;;;;200.52;104.50;;;26.50;1817.60;;;;;;5114410;28;20036;-59
2021/12/22 07:13:18;;;;;;;194.50;98.28;;;26.50;1817.60;;;;;;5117261;28;20062;-60
2021/12/22 07:15:43;;;;;;;189.05;95.05;;;26.50;1843.20;;;;;;5117218;28;20048;-60
2021/12/22 07:18:11;;;;;;;178.90;89.03;;;26.50;1843.20;;;;;;5117123;28;20491;-60
2021/12/22 07:20:37;;;;;;;175.45;89.68;;;51.20;1868.80;;;;;;5117058;28;20024;-60
2021/12/22 07:23:03;;;;;;;195.10;99.93;;;51.20;1868.80;;;;;;5116805;28;20384;-60
2021/12/22 07:25:29;;;;;;;200.95;101.95;;;51.20;1868.80;;;;;;5116855;28;20377;-62
2021/12/22 07:27:55;;;;;;;210.15;104.63;;;51.20;1868.80;;;;;;5116793;28;20051;-59
2021/12/22 07:30:21;;;;;;;201.73;103.50;;;51.30;1868.80;;;;;;5116864;28;20020;-61
2021/12/22 07:32:46;;;;;;;207.25;97.47;;;51.30;1945.60;;;;;;5116980;28;20409;-59
2021/12/22 07:35:19;;;;;;;226.27;92.32;;;51.60;1920.00;;;;;;5116416;28;20038;-60
2021/12/22 07:38:24;;;;;;;203.00;88.22;;;51.70;1843.20;;;;;;5116477;28;20020;-60
2021/12/22 07:40:54;;;;;;;239.60;99.72;;;51.70;1843.20;;;;;;5116551;28;20028;-61
2021/12/22 07:43:20;;;;;;;234.73;100.85;;;51.70;1843.20;;;;;;5116558;28;20043;-60
2021/12/22 07:45:46;;;;;;;216.98;97.68;;;51.80;1843.20;;;;;;5116471;28;20016;-60
2021/12/22 07:48:12;;;;;;;305.73;123.95;;;51.90;1817.60;;;;;;5116227;28;20031;-59
2021/12/22 07:50:38;;;;;;;263.90;101.72;;;52.00;1817.60;;;;;;5116538;28;20369;-60
2021/12/22 07:53:04;;;;;;;194.18;71.47;;;52.00;1792.00;;;;;;5116061;28;20019;-58
2021/12/22 07:55:30;;;;;;;169.88;64.45;;;52.00;1792.00;;;;;;5098023;28;20501;-59
2021/12/22 07:57:56;;;;;;;146.85;67.88;;;51.90;1817.60;;;;;;5116169;28;20028;-60
2021/12/22 08:00:22;;;;;;;161.52;70.90;;;51.90;1817.60;;;;;;5116149;28;20019;-60
2021/12/22 08:02:47;;;;;;;258.55;116.18;;;51.90;1843.20;;;;;;5115986;28;20031;-58
2021/12/22 08:05:13;;;;;;;226.95;106.43;;;51.90;1843.20;;;;;;5116136;28;20498;-60
2021/12/22 08:07:39;;;;;;;170.25;82.78;;;51.80;1843.20;;;;;;5115931;28;20032;-59
2021/12/22 08:10:07;;;;;;;163.40;76.68;;;51.70;1843.20;;;;;;5116425;28;20016;-59
2021/12/22 08:12:33;;;;;;;151.07;72.22;;;51.70;1843.20;;;;;;5116073;28;20031;-59
2021/12/22 08:14:59;;;;;;;106.00;53.08;;;51.70;1894.40;;;;;;5097566;28;20019;-60
2021/12/22 08:17:29;;;;;;;102.30;52.33;;;51.90;1817.60;;;;;;5115958;28;20097;-60
2021/12/22 08:19:55;;;;;;;113.93;58.53;;;51.90;1817.60;;;;;;5115855;28;20347;-59
2021/12/22 08:22:21;;;;;;;116.10;59.85;;;51.90;1817.60;;;;;;5114434;28;20077;-59
2021/12/22 08:24:47;;;;;;;118.88;58.20;;;52.00;1792.00;;;;;;5115563;28;20106;-59
2021/12/22 08:27:13;;;;;;;117.13;58.85;;;52.00;1792.00;;;;;;5115615;28;20048;-60
2021/12/22 08:29:42;;;;;;;102.38;52.83;;;52.00;1792.00;;;;;;5115679;28;20023;-59
2021/12/22 08:32:09;;;;;;;130.77;59.28;;;52.00;1792.00;;;;;;5115680;28;20427;-59
2021/12/22 08:34:39;;;;;;;187.23;72.47;;;52.00;1792.00;;;;;;5115421;28;20024;-58
2021/12/22 08:39:50;;;;;;;136.63;60.70;;;52.10;1792.00;;;;;;5115665;28;20486;-59
2021/12/22 08:42:15;;;;;;;115.40;53.42;;;76.80;1792.00;;;;;;5115727;28;20032;-58
2021/12/22 08:44:41;;;;;;;90.97;46.83;;;76.80;1792.00;;;;;;5115254;28;20507;-58
2021/12/22 08:47:07;;;;;;;87.45;42.60;;;76.80;1766.40;;;;;;5115583;28;20055;-59
2021/12/22 08:49:33;;;;;;;109.65;48.33;;;76.80;1766.40;;;;;;5115175;28;20030;-68
2021/12/22 08:52:00;;;;;;;90.47;42.33;;;76.90;1792.00;;;;;;5115002;28;20111;-60
2021/12/22 08:54:26;;;;;;;96.40;47.53;;;76.90;1792.00;;;;;;5115765;28;20034;-59
2021/12/22 08:56:52;;;;;;;114.72;51.75;;;77.00;1792.00;;;;;;5115260;28;20032;-59
2021/12/22 08:59:18;;;;;;;84.30;43.10;;;77.00;1792.00;;;;;;5115075;28;20377;-59
2021/12/22 09:01:44;;;;;;;114.20;53.03;;;77.00;1792.00;;;;;;5096625;28;20362;-58
2021/12/22 09:04:10;;;;;;;119.35;62.35;;;77.00;1792.00;;;;;;5115644;28;20023;-59
2021/12/22 09:06:36;;;;;;;133.85;68.38;;;77.10;1792.00;;;;;;5114985;28;20068;-59
2021/12/22 09:09:04;;;;;;;109.85;60.83;;;77.10;1817.60;;;;;;5114694;28;20043;-59
2021/12/22 09:11:30;;;;;;;77.20;42.53;;;77.20;1792.00;;;;;;5114883;28;20019;-58
2021/12/22 09:13:56;;;;;;;70.45;38.03;;;77.20;1792.00;;;;;;5107504;28;20504;-59
2021/12/22 09:16:22;;;;;;;73.90;39.85;;;77.20;1792.00;;;;;;5083965;28;20017;-58
2021/12/22 09:18:48;;;;;;;84.72;43.40;;;77.30;1792.00;;;;;;5082254;28;20027;-57
2021/12/22 09:21:16;;;;;;;72.93;39.28;;;77.30;1792.00;;;;;;5083853;28;20028;-58
2021/12/22 09:23:42;;;;;;;85.47;40.80;;;77.30;1766.40;;;;;;5082931;28;20024;-57
2021/12/22 09:26:08;;;;;;;94.03;46.30;;;77.40;1792.00;;;;;;5081597;28;20028;-58
2021/12/22 09:28:35;;;;;;;91.35;46.25;;;77.40;1792.00;;;;;;5081570;28;20040;-59
2021/12/22 09:31:04;;;;;;;83.30;39.97;;;77.40;1792.00;;;;;;5083741;28;20021;-57
2021/12/22 09:33:30;;;;;;;79.28;40.70;;;77.50;1766.40;;;;;;5082066;28;20091;-57
2021/12/22 09:35:56;;;;;;;78.68;36.40;;;77.50;1766.40;;;;;;5086923;28;20371;-57
2021/12/22 09:38:21;;;;;;;56.88;31.02;;;77.50;1740.80;;;;;;5088835;28;20037;-59
2021/12/22 09:40:48;;;;;;;55.53;31.30;;;77.50;1740.80;;;;;;5088312;28;20042;-58
2021/12/22 09:43:14;;;;;;;54.63;30.13;;;77.50;1740.80;;;;;;5085325;28;20056;-59
2021/12/22 09:45:47;;;;;;;58.17;33.53;;;77.60;1740.80;;;;;;5081511;28;20028;-57
2021/12/22 09:53:12;;;;;;;55.05;30.45;;;77.70;1740.80;;;;;;5083287;28;20389;-59
2021/12/22 09:55:38;;;;;;;65.47;33.03;;;102.40;1715.20;;;;;;5083093;28;20025;-60
2021/12/22 09:58:05;;;;;;;65.72;34.47;;;102.50;1715.20;;;;;;5081148;28;20027;-59
2021/12/22 10:00:34;;;;;;;65.13;33.42;;;102.60;1766.40;;;;;;5082561;28;20024;-60
2021/12/22 10:03:00;;;;;;;63.72;34.15;;;102.70;1766.40;;;;;;5083157;28;20017;-59
2021/12/22 10:05:26;;;;;;;59.67;32.38;;;102.80;1766.40;;;;;;5083171;28;20012;-59
2021/12/22 10:08:17;;;;;;;54.88;31.33;;;102.90;1766.40;;;;;;5081819;28;20035;-59
2021/12/22 10:10:50;;;;;;;58.90;31.10;;;102.90;1740.80;;;;;;5086718;28;20545;-60
2021/12/22 10:13:19;;;;;;;57.55;29.48;;;103.00;1740.80;;;;;;5093440;28;20024;-60
2021/12/22 10:15:46;;;;;;;64.22;32.33;;;103.00;1715.20;;;;;;5093779;28;20031;-60
2021/12/22 10:18:15;;;;;;;65.07;33.83;;;103.00;1740.80;;;;;;5093488;28;20052;-60
2021/12/22 10:20:44;;;;;;;62.58;31.67;;;103.10;1715.20;;;;;;5093665;28;20466;-60
2021/12/22 10:23:27;;;;;;;51.22;28.52;;;103.10;1689.60;;;;;;5093514;28;20043;-60
2021/12/22 10:25:56;;;;;;;97.30;48.55;;;103.20;1715.20;;;;;;5093658;28;20020;-59
2021/12/22 10:28:24;;;;;;;71.72;38.83;;;103.30;1715.20;;;;;;5093326;28;20036;-60
2021/12/22 10:30:55;;;;;;;71.38;36.33;;;103.30;1689.60;;;;;;5093618;28;20025;-60
2021/12/22 10:33:42;;;;;;;75.95;39.90;;;103.30;1689.60;;;;;;5093499;28;20480;-59
2021/12/22 10:36:13;;;;;;;71.47;37.70;;;128.00;1715.20;;;;;;5093479;28;20024;-60
2021/12/22 10:38:46;;;;;;;67.70;36.22;;;128.10;1689.60;;;;;;5093486;28;20595;-59
2021/12/22 10:41:12;;;;;;;66.72;34.88;;;128.20;1689.60;;;;;;5093594;28;20024;-60
2021/12/22 10:43:44;;;;;;;69.40;35.33;;;128.20;1664.00;;;;;;5093186;28;20067;-57
2021/12/22 10:46:16;;;;;;;69.40;34.22;;;128.30;1664.00;;;;;;5094901;28;20035;-57
2021/12/22 10:51:30;;;;;;;66.30;33.72;;;128.30;1612.80;;;;;;5097440;28;20035;-57
2021/12/22 10:53:57;;;;;;;69.43;32.35;;;128.40;1587.20;;;;;;5097317;28;20466;-57
2021/12/22 10:56:32;;;;;;;63.85;33.58;;;128.40;1587.20;;;;;;5097099;28;20104;-57
2021/12/22 10:59:06;;;;;;;66.30;34.28;;;128.50;1587.20;;;;;;5097053;28;20024;-57
2021/12/22 11:01:41;;;;;;;63.83;32.97;;;128.50;1587.20;;;;;;5097130;28;20031;-56
2021/12/22 11:04:15;;;;;;;;;;;128.60;1587.20;;;;;;5097210;28;20039;-57
2021/12/22 11:06:41;;;;;;;45.55;25.27;;;128.60;1587.20;;;;;;5097038;28;19904;-57
2021/12/22 11:09:13;;;;;;;46.17;24.90;;;128.70;1561.60;;;;;;5096908;28;20080;-57
2021/12/22 11:11:50;;;;;;;47.20;25.58;;;128.80;1561.60;;;;;;5096604;28;20021;-57
2021/12/22 11:14:24;;;;;;;47.75;26.65;;;128.80;1561.60;;;;;;5096807;28;20016;-57
2021/12/22 11:17:01;;;;;;;47.07;26.07;;;128.90;1561.60;;;;;;5096574;28;20027;-57
2021/12/22 11:19:30;;;;;;;46.13;26.50;;;128.90;1561.60;;;;;;5096499;28;20028;-57
2021/12/22 12:04:19;;;;;;;57.90;24.13;;;103.00;1510.40;;;;;;5110541;27;20421;-56
2021/12/22 12:06:49;;;;;;;89.18;32.80;;;103.10;1510.40;;;;;;5109973;28;20088;-54
2021/12/22 12:09:20;;;;;;;96.15;34.55;;;103.10;1536.00;;;;;;5110110;28;20058;-54
2021/12/22 12:11:55;;;;;;;75.55;30.25;;;103.10;1536.00;;;;;;5107499;28;20020;-54
2021/12/22 12:23:28;;;;;;;105.07;44.70;;;128.20;1510.40;;;;;;5108776;28;20047;-55
2021/12/22 12:25:55;;;;;;;101.43;45.47;;;128.30;1510.40;;;;;;5109361;28;20423;-55
2021/12/22 12:28:22;;;;;;;141.77;60.90;;;128.40;1510.40;;;;;;5109816;28;20029;-55
2021/12/22 12:30:57;;;;;;;104.05;48.25;;;128.40;1484.80;;;;;;5109874;28;20063;-56
2021/12/22 12:33:31;;;;;;;81.05;39.00;;;128.40;1484.80;;;;;;5108174;28;20046;-57
2021/12/22 12:36:09;;;;;;;54.30;28.33;;;128.50;1484.80;;;;;;5106862;28;20389;-58
2021/12/22 12:38:40;;;;;;;61.35;34.63;;;128.50;1484.80;;;;;;5106924;28;20418;-58
2021/12/22 12:41:31;;;;;;;78.93;39.78;;;128.60;1561.60;;;;;;5108864;28;20032;-57
2021/12/22 12:44:06;;;;;;;97.90;39.97;;;128.80;1561.60;;;;;;5110873;28;20050;-57
2021/12/22 12:46:40;;;;;;;;;;;128.80;1433.60;;;;;;5111135;28;20020;-57
2021/12/22 12:51:33;;;;;;;68.47;31.40;;;128.70;1433.60;;;;;;5110669;28;20073;-57
2021/12/22 12:54:06;;;;;;;73.32;33.22;;;128.70;1459.20;;;;;;5110925;28;20350;-58
2021/12/22 12:56:36;;;;;;;50.38;25.77;;;128.70;1484.80;;;;;;5110882;28;20020;-58
2021/12/22 12:59:11;;;;;;;61.13;29.50;;;128.70;1484.80;;;;;;5108917;28;20446;-58
2021/12/22 13:01:46;;;;;;;73.20;34.10;;;128.80;1484.80;;;;;;5107352;28;20016;-57
2021/12/22 13:04:24;;;;;;;74.70;36.28;;;128.80;1484.80;;;;;;5107190;28;20040;-58
2021/12/22 13:06:51;;;;;;;56.92;32.83;;;128.80;1484.80;;;;;;5110406;28;20077;-57
2021/12/22 13:09:24;;;;;;;46.55;25.63;;;128.70;1484.80;;;;;;5110563;28;20016;-58
2021/12/22 13:17:25;;;;;;;64.55;30.30;;;128.70;1484.80;;;;;;5096873;28;20484;-57
2021/12/22 13:19:57;;;;;;;69.13;35.25;;;128.70;1459.20;;;;;;5096946;28;20036;-57
2021/12/22 13:22:29;;;;;;;53.17;29.67;;;128.70;1459.20;;;;;;5096346;28;20032;-57
2021/12/22 13:25:11;;;;;;;52.47;28.98;;;128.70;1459.20;;;;;;5096756;28;20351;-57
2021/12/22 13:27:45;;;;;;;62.33;29.73;;;128.70;1459.20;;;;;;5096048;28;20517;-57
2021/12/22 13:30:15;;;;;;;35.70;17.88;;;128.70;1459.20;;;;;;5096443;28;20085;-57
2021/12/22 13:32:59;;;;;;;43.55;21.02;;;128.60;1459.20;;;;;;5095325;28;20042;-58
2021/12/22 13:35:36;;;;;;;47.70;25.15;;;128.60;1484.80;;;;;;5094391;28;20494;-58
2021/12/22 13:38:06;;;;;;;37.72;20.77;;;128.60;1459.20;;;;;;5095380;28;20036;-57